createdAt,value
2018-08-13T00:00:28.839Z,99700.60
2018-08-13T00:01:00.023Z,99692.53
2018-08-13T00:01:31.155Z,99694.64
2018-08-13T00:02:02.321Z,99698.63
2018-08-13T00:02:33.436Z,99697.00
2018-08-13T00:03:04.596Z,99693.97
2018-08-13T00:03:35.823Z,99698.14
2018-08-13T00:04:07.088Z,99697.16
2018-08-13T00:04:38.246Z,99696.03
2018-08-13T00:05:09.354Z,99697.47
2018-08-13T00:05:40.584Z,99695.50
2018-08-13T00:06:11.703Z,99704.14
2018-08-13T00:06:42.891Z,99701.61
2018-08-13T00:07:14.013Z,99698.08
2018-08-13T00:07:45.185Z,99699.41
2018-08-13T00:08:16.358Z,99693.75
2018-08-13T00:08:47.468Z,99696.91
2018-08-13T00:09:18.632Z,99699.83
2018-08-13T00:09:49.756Z,99701.53
2018-08-13T00:10:20.874Z,99703.92
2018-08-13T00:10:51.987Z,99691.60
2018-08-13T00:11:23.244Z,99701.76
2018-08-13T00:11:54.361Z,99697.52
2018-08-13T00:12:25.532Z,99701.00
2018-08-13T00:12:56.651Z,99702.22
2018-08-13T00:13:27.816Z,99699.48
2018-08-13T00:13:58.937Z,99695.84
2018-08-13T00:14:30.165Z,99697.93
2018-08-13T00:15:01.353Z,99696.60
2018-08-13T00:15:32.503Z,99698.99
2018-08-13T00:16:03.619Z,99703.80
2018-08-13T00:16:34.793Z,99702.02
2018-08-13T00:17:05.903Z,99697.09
2018-08-13T00:17:37.096Z,99699.78
2018-08-13T00:18:08.233Z,99697.89
2018-08-13T00:18:39.444Z,99705.55
2018-08-13T00:19:10.622Z,99706.76
2018-08-13T00:19:41.793Z,99704.10
2018-08-13T00:20:12.900Z,99706.88
2018-08-13T00:20:44.020Z,99703.95
2018-08-13T00:21:15.204Z,99700.54
2018-08-13T00:21:46.420Z,99706.80
2018-08-13T00:22:17.531Z,99705.59
2018-08-13T00:22:48.645Z,99703.39
2018-08-13T00:23:19.813Z,99703.39
2018-08-13T00:23:51.007Z,99705.59
2018-08-13T00:24:22.184Z,99704.72
2018-08-13T00:24:53.400Z,99701.16
2018-08-13T00:25:24.568Z,99705.36
2018-08-13T00:25:55.732Z,99698.05
2018-08-13T00:26:26.840Z,99698.05
2018-08-13T00:26:57.956Z,99699.83
2018-08-13T00:27:29.063Z,99701.16
2018-08-13T00:28:00.281Z,99699.48
2018-08-13T00:28:31.400Z,99702.48
2018-08-13T00:29:02.636Z,99700.44
2018-08-13T00:29:33.803Z,99702.48
2018-08-13T00:30:05.078Z,99701.16
2018-08-13T00:30:36.258Z,99703.99
2018-08-13T00:31:07.428Z,99703.87
2018-08-13T00:31:38.653Z,99696.41
2018-08-13T00:32:09.824Z,99704.26
2018-08-13T00:32:41.028Z,99697.81
2018-08-13T00:33:12.205Z,99698.42
2018-08-13T00:33:43.311Z,99703.80
2018-08-13T00:34:14.489Z,99700.70
2018-08-13T00:34:45.592Z,99697.36
2018-08-13T00:35:16.749Z,99694.70
2018-08-13T00:35:47.984Z,99706.91
2018-08-13T00:36:19.157Z,99698.08
2018-08-13T00:36:50.381Z,99701.72
2018-08-13T00:37:21.535Z,99699.41
2018-08-13T00:37:52.710Z,99701.23
2018-08-13T00:38:23.883Z,99696.98
2018-08-13T00:38:55.127Z,99699.37
2018-08-13T00:39:26.320Z,99706.57
2018-08-13T00:39:57.433Z,99698.34
2018-08-13T00:40:28.543Z,99691.94
2018-08-13T00:40:59.688Z,99699.14
2018-08-13T00:41:30.861Z,99699.14
2018-08-13T00:42:02.030Z,99697.44
2018-08-13T00:42:34.301Z,99704.67
2018-08-13T00:43:05.870Z,99698.88
2018-08-13T00:43:37.024Z,99698.61
2018-08-13T00:44:08.142Z,99706.56
2018-08-13T00:44:39.407Z,99706.67
2018-08-13T00:45:10.620Z,99704.33
2018-08-13T00:45:41.821Z,99706.71
2018-08-13T00:46:12.936Z,99702.47
2018-08-13T00:46:44.041Z,99702.09
2018-08-13T00:47:15.209Z,99703.03
2018-08-13T00:47:46.332Z,99702.09
2018-08-13T00:48:17.441Z,99698.30
2018-08-13T00:48:48.626Z,99702.01
2018-08-13T00:49:19.745Z,99695.11
2018-08-13T00:49:50.856Z,99699.58
2018-08-13T00:50:22.023Z,99697.42
2018-08-13T00:50:53.232Z,99701.20
2018-08-13T00:51:24.404Z,99701.53
2018-08-13T00:51:55.588Z,99694.71
2018-08-13T00:52:26.707Z,99694.52
2018-08-13T00:52:57.825Z,99695.68
2018-08-13T00:53:29.053Z,99694.81
2018-08-13T00:54:00.172Z,99692.27
2018-08-13T00:54:31.333Z,99697.08
2018-08-13T00:55:02.459Z,99696.25
2018-08-13T00:55:33.663Z,99691.78
2018-08-13T00:56:04.774Z,99695.41
2018-08-13T00:56:35.929Z,99692.95
2018-08-13T00:57:07.044Z,99695.33
2018-08-13T00:57:38.222Z,99696.00
2018-08-13T00:58:09.336Z,99699.21
2018-08-13T00:58:40.541Z,99699.43
2018-08-13T00:59:11.707Z,99700.48
2018-08-13T00:59:42.884Z,99699.27
2018-08-13T01:00:13.992Z,99704.02
2018-08-13T01:00:45.161Z,99698.64
2018-08-13T01:01:16.334Z,99703.50
2018-08-13T01:01:47.557Z,99706.37
2018-08-13T01:02:18.685Z,99706.27
2018-08-13T01:02:49.908Z,99708.08
2018-08-13T01:03:21.079Z,99707.25
2018-08-13T01:03:52.257Z,99700.98
2018-08-13T01:04:23.420Z,99706.17
2018-08-13T01:04:54.584Z,99704.67
2018-08-13T01:05:25.760Z,99705.23
2018-08-13T01:05:56.960Z,99707.59
2018-08-13T01:06:28.197Z,99706.83
2018-08-13T01:06:59.370Z,99703.91
2018-08-13T01:07:30.554Z,99703.73
2018-08-13T01:08:01.743Z,99707.69
2018-08-13T01:08:32.917Z,99705.25
2018-08-13T01:09:04.099Z,99704.97
2018-08-13T01:09:35.276Z,99704.76
2018-08-13T01:10:06.393Z,99699.77
2018-08-13T01:10:37.569Z,99706.56
2018-08-13T01:11:08.760Z,99700.43
2018-08-13T01:11:39.943Z,99705.23
2018-08-13T01:12:11.054Z,99702.98
2018-08-13T01:12:42.223Z,99702.59
2018-08-13T01:13:13.339Z,99703.53
2018-08-13T01:13:44.554Z,99703.53
2018-08-13T01:14:15.729Z,99699.28
2018-08-13T01:14:46.839Z,99703.34
2018-08-13T01:15:18.012Z,99701.16
2018-08-13T01:15:49.185Z,99698.99
2018-08-13T01:16:20.359Z,99698.23
2018-08-13T01:16:51.487Z,99700.97
2018-08-13T01:17:22.604Z,99695.40
2018-08-13T01:17:53.812Z,99691.53
2018-08-13T01:18:24.995Z,99694.83
2018-08-13T01:18:56.235Z,99691.80
2018-08-13T01:19:27.405Z,99688.42
2018-08-13T01:19:58.581Z,99695.48
2018-08-13T01:20:29.785Z,99692.00
2018-08-13T01:21:00.939Z,99688.59
2018-08-13T01:21:32.052Z,99683.85
2018-08-13T01:22:03.175Z,99687.92
2018-08-13T01:22:34.287Z,99693.31
2018-08-13T01:23:05.464Z,99683.88
2018-08-13T01:23:36.696Z,99688.29
2018-08-13T01:24:07.888Z,99688.55
2018-08-13T01:24:39.052Z,99691.69
2018-08-13T01:25:10.316Z,99693.10
2018-08-13T01:25:41.496Z,99691.40
2018-08-13T01:26:12.611Z,99690.59
2018-08-13T01:26:43.787Z,99694.38
2018-08-13T01:27:14.964Z,99693.05
2018-08-13T01:27:46.084Z,99694.27
2018-08-13T01:28:17.210Z,99695.98
2018-08-13T01:28:48.418Z,99695.43
2018-08-13T01:29:19.649Z,99696.36
2018-08-13T01:29:50.872Z,99692.78
2018-08-13T01:30:22.040Z,99693.63
2018-08-13T01:30:53.280Z,99699.33
2018-08-13T01:31:24.473Z,99696.48
2018-08-13T01:31:55.595Z,99697.45
2018-08-13T01:32:26.706Z,99697.25
2018-08-13T01:32:57.944Z,99693.30
2018-08-13T01:33:29.062Z,99690.36
2018-08-13T01:34:00.180Z,99692.52
2018-08-13T01:34:31.365Z,99693.48
2018-08-13T01:35:02.593Z,99689.52
2018-08-13T01:35:33.723Z,99690.46
2018-08-13T01:36:04.843Z,99693.10
2018-08-13T01:36:35.961Z,99690.14
2018-08-13T01:37:07.146Z,99688.33
2018-08-13T01:37:38.266Z,99695.05
2018-08-13T01:38:09.439Z,99690.24
2018-08-13T01:38:40.612Z,99688.15
2018-08-13T01:39:11.789Z,99688.25
2018-08-13T01:39:42.919Z,99686.25
2018-08-13T01:40:14.133Z,99688.52
2018-08-13T01:40:45.254Z,99693.90
2018-08-13T01:41:16.368Z,99691.42
2018-08-13T01:41:47.479Z,99692.35
2018-08-13T01:42:18.708Z,99692.84
2018-08-13T01:42:49.827Z,99689.81
2018-08-13T01:43:21.006Z,99690.84
2018-08-13T01:43:52.126Z,99691.30
2018-08-13T01:44:23.324Z,99695.42
2018-08-13T01:44:54.444Z,99691.84
2018-08-13T01:45:25.656Z,99690.91
2018-08-13T01:45:56.774Z,99688.37
2018-08-13T01:46:28.012Z,99686.17
2018-08-13T01:46:59.135Z,99686.66
2018-08-13T01:47:30.364Z,99688.81
2018-08-13T01:48:01.497Z,99689.30
2018-08-13T01:48:32.661Z,99685.34
2018-08-13T01:49:03.896Z,99683.18
2018-08-13T01:49:35.183Z,99682.70
2018-08-13T01:50:06.367Z,99681.66
2018-08-13T01:50:37.536Z,99687.63
2018-08-13T01:51:08.709Z,99684.23
2018-08-13T01:51:39.877Z,99684.07
2018-08-13T01:52:11.062Z,99680.01
2018-08-13T01:52:42.176Z,99686.62
2018-08-13T01:53:13.285Z,99689.64
2018-08-13T01:53:44.455Z,99689.26
2018-08-13T01:54:15.677Z,99688.09
2018-08-13T01:54:46.952Z,99687.81
2018-08-13T01:55:18.181Z,99680.47
2018-08-13T01:55:49.336Z,99684.14
2018-08-13T01:56:20.452Z,99686.40
2018-08-13T01:56:51.604Z,99682.14
2018-08-13T01:57:22.755Z,99682.80
2018-08-13T01:57:53.868Z,99683.83
2018-08-13T01:58:24.985Z,99679.64
2018-08-13T01:58:56.110Z,99688.14
2018-08-13T01:59:27.280Z,99683.31
2018-08-13T01:59:58.414Z,99681.80
2018-08-13T02:00:29.596Z,99684.80
2018-08-13T02:01:00.710Z,99680.54
2018-08-13T02:01:31.923Z,99675.35
2018-08-13T02:02:03.032Z,99673.73
2018-08-13T02:02:34.152Z,99680.98
2018-08-13T02:03:05.324Z,99679.08
2018-08-13T02:03:36.548Z,99680.47
2018-08-13T02:04:07.674Z,99676.98
2018-08-13T02:04:38.905Z,99678.85
2018-08-13T02:05:10.040Z,99672.83
2018-08-13T02:05:41.215Z,99679.82
2018-08-13T02:06:12.332Z,99676.31
2018-08-13T02:06:43.524Z,99677.34
2018-08-13T02:07:14.753Z,99678.27
2018-08-13T02:07:45.872Z,99681.84
2018-08-13T02:08:17.039Z,99682.42
2018-08-13T02:08:48.209Z,99688.09
2018-08-13T02:09:19.381Z,99681.10
2018-08-13T02:09:50.564Z,99682.03
2018-08-13T02:10:21.737Z,99688.25
2018-08-13T02:10:52.852Z,99676.91
2018-08-13T02:11:24.023Z,99685.31
2018-08-13T02:11:55.172Z,99686.73
2018-08-13T02:12:26.338Z,99683.08
2018-08-13T02:12:57.456Z,99682.94
2018-08-13T02:13:28.673Z,99680.00
2018-08-13T02:13:59.791Z,99686.30
2018-08-13T02:14:30.964Z,99681.22
2018-08-13T02:15:02.145Z,99685.80
2018-08-13T02:15:33.262Z,99687.46
2018-08-13T02:16:04.441Z,99685.75
2018-08-13T02:16:35.636Z,99685.94
2018-08-13T02:17:06.799Z,99682.52
2018-08-13T02:17:37.969Z,99678.47
2018-08-13T02:18:09.142Z,99687.41
2018-08-13T02:18:40.267Z,99683.06
2018-08-13T02:19:11.382Z,99689.06
2018-08-13T02:19:42.552Z,99689.55
2018-08-13T02:20:13.659Z,99688.22
2018-08-13T02:20:44.840Z,99685.64
2018-08-13T02:21:16.056Z,99687.45
2018-08-13T02:21:47.181Z,99686.42
2018-08-13T02:22:18.332Z,99680.61
2018-08-13T02:22:49.497Z,99681.00
2018-08-13T02:23:20.614Z,99680.81
2018-08-13T02:23:51.780Z,99681.36
2018-08-13T02:24:22.948Z,99685.16
2018-08-13T02:24:54.124Z,99684.23
2018-08-13T02:25:25.303Z,99688.19
2018-08-13T02:25:56.476Z,99686.00
2018-08-13T02:26:27.584Z,99688.94
2018-08-13T02:26:58.746Z,99683.66
2018-08-13T02:27:29.903Z,99684.98
2018-08-13T02:28:01.018Z,99683.21
2018-08-13T02:28:32.193Z,99686.30
2018-08-13T02:29:03.361Z,99683.21
2018-08-13T02:29:34.535Z,99683.59
2018-08-13T02:30:05.715Z,99680.66
2018-08-13T02:30:36.840Z,99683.45
2018-08-13T02:31:08.021Z,99678.41
2018-08-13T02:31:39.139Z,99682.17
2018-08-13T02:32:10.260Z,99682.89
2018-08-13T02:32:41.460Z,99686.16
2018-08-13T02:33:12.580Z,99689.82
2018-08-13T02:33:43.701Z,99688.20
2018-08-13T02:34:14.811Z,99691.77
2018-08-13T02:34:46.005Z,99687.60
2018-08-13T02:35:17.132Z,99688.14
2018-08-13T02:35:48.252Z,99684.72
2018-08-13T02:36:19.413Z,99685.83
2018-08-13T02:36:50.588Z,99686.01
2018-08-13T02:37:21.719Z,99684.69
2018-08-13T02:37:52.918Z,99687.33
2018-08-13T02:38:24.023Z,99686.55
2018-08-13T02:38:55.133Z,99692.75
2018-08-13T02:39:26.252Z,99685.77
2018-08-13T02:39:57.364Z,99681.81
2018-08-13T02:40:28.521Z,99689.27
2018-08-13T02:40:59.694Z,99689.66
2018-08-13T02:41:30.812Z,99690.50
2018-08-13T02:42:02.038Z,99689.58
2018-08-13T02:42:33.160Z,99691.10
2018-08-13T02:43:04.356Z,99686.22
2018-08-13T02:43:35.528Z,99690.48
2018-08-13T02:44:06.650Z,99683.80
2018-08-13T02:44:37.825Z,99689.31
2018-08-13T02:45:08.950Z,99689.67
2018-08-13T02:45:40.060Z,99683.94
2018-08-13T02:46:11.224Z,99686.58
2018-08-13T02:46:42.401Z,99689.61
2018-08-13T02:47:13.570Z,99687.81
2018-08-13T02:47:44.684Z,99693.56
2018-08-13T02:48:15.827Z,99683.94
2018-08-13T02:48:46.991Z,99687.52
2018-08-13T02:49:18.215Z,99688.34
2018-08-13T02:49:49.396Z,99688.34
2018-08-13T02:50:20.517Z,99690.23
2018-08-13T02:50:51.620Z,99688.53
2018-08-13T02:51:22.785Z,99690.39
2018-08-13T02:51:53.899Z,99692.72
2018-08-13T02:52:25.053Z,99692.33
2018-08-13T02:52:56.320Z,99691.02
2018-08-13T02:53:27.490Z,99686.76
2018-08-13T02:53:58.661Z,99688.65
2018-08-13T02:54:29.890Z,99685.62
2018-08-13T02:55:01.064Z,99683.91
2018-08-13T02:55:32.225Z,99682.20
2018-08-13T02:56:03.456Z,99691.52
2018-08-13T02:56:34.657Z,99684.00
2018-08-13T02:57:05.821Z,99689.19
2018-08-13T02:57:36.944Z,99691.82
2018-08-13T02:58:08.094Z,99686.16
2018-08-13T02:58:39.256Z,99686.16
2018-08-13T02:59:10.379Z,99686.64
2018-08-13T02:59:41.586Z,99688.34
2018-08-13T03:00:12.757Z,99687.39
2018-08-13T03:00:43.925Z,99682.98
2018-08-13T03:01:15.096Z,99686.84
2018-08-13T03:01:46.328Z,99686.37
2018-08-13T03:02:17.490Z,99682.41
2018-08-13T03:02:48.661Z,99686.22
2018-08-13T03:03:19.832Z,99686.91
2018-08-13T03:03:50.951Z,99684.97
2018-08-13T03:04:22.188Z,99687.60
2018-08-13T03:04:53.418Z,99690.06
2018-08-13T03:05:24.612Z,99685.95
2018-08-13T03:05:55.894Z,99686.31
2018-08-13T03:06:27.023Z,99690.66
2018-08-13T03:06:58.196Z,99689.91
2018-08-13T03:07:29.317Z,99691.59
2018-08-13T03:08:00.488Z,99688.41
2018-08-13T03:08:31.635Z,99693.39
2018-08-13T03:09:02.784Z,99692.45
2018-08-13T03:09:33.918Z,99691.98
2018-08-13T03:10:05.037Z,99691.98
2018-08-13T03:10:36.153Z,99692.84
2018-08-13T03:11:07.307Z,99688.11
2018-08-13T03:11:38.479Z,99694.88
2018-08-13T03:12:09.655Z,99695.91
2018-08-13T03:12:40.917Z,99688.53
2018-08-13T03:13:12.093Z,99692.28
2018-08-13T03:13:43.305Z,99687.93
2018-08-13T03:14:14.425Z,99690.56
2018-08-13T03:14:45.649Z,99693.30
2018-08-13T03:15:16.773Z,99696.37
2018-08-13T03:15:47.949Z,99696.77
2018-08-13T03:16:19.116Z,99693.53
2018-08-13T03:16:50.233Z,99694.97
2018-08-13T03:17:21.418Z,99693.50
2018-08-13T03:17:52.566Z,99696.44
2018-08-13T03:18:23.749Z,99698.21
2018-08-13T03:18:54.855Z,99694.25
2018-08-13T03:19:25.970Z,99694.83
2018-08-13T03:19:57.206Z,99696.29
2018-08-13T03:20:28.329Z,99691.10
2018-08-13T03:20:59.493Z,99692.52
2018-08-13T03:21:30.617Z,99692.42
2018-08-13T03:22:01.784Z,99696.56
2018-08-13T03:22:32.947Z,99694.76
2018-08-13T03:23:04.061Z,99694.76
2018-08-13T03:23:35.171Z,99698.72
2018-08-13T03:24:06.284Z,99693.53
2018-08-13T03:24:37.463Z,99698.41
2018-08-13T03:25:08.637Z,99694.99
2018-08-13T03:25:39.771Z,99702.38
2018-08-13T03:26:10.878Z,99696.17
2018-08-13T03:26:41.991Z,99702.77
2018-08-13T03:27:13.160Z,99703.16
2018-08-13T03:27:44.401Z,99700.66
2018-08-13T03:28:15.571Z,99701.77
2018-08-13T03:28:46.757Z,99699.27
2018-08-13T03:29:17.873Z,99701.55
2018-08-13T03:29:49.043Z,99705.87
2018-08-13T03:30:20.156Z,99698.91
2018-08-13T03:30:51.272Z,99700.59
2018-08-13T03:31:22.385Z,99703.80
2018-08-13T03:31:53.552Z,99702.09
2018-08-13T03:32:24.654Z,99693.00
2018-08-13T03:32:55.919Z,99699.54
2018-08-13T03:33:27.049Z,99698.27
2018-08-13T03:33:58.285Z,99691.69
2018-08-13T03:34:29.410Z,99701.88
2018-08-13T03:35:00.579Z,99692.64
2018-08-13T03:35:31.740Z,99693.09
2018-08-13T03:36:02.920Z,99687.81
2018-08-13T03:36:34.044Z,99691.62
2018-08-13T03:37:05.160Z,99693.64
2018-08-13T03:37:36.334Z,99689.12
2018-08-13T03:38:07.484Z,99690.65
2018-08-13T03:38:38.717Z,99693.44
2018-08-13T03:39:09.953Z,99693.95
2018-08-13T03:39:41.169Z,99693.72
2018-08-13T03:40:12.329Z,99689.52
2018-08-13T03:40:43.496Z,99692.36
2018-08-13T03:41:14.607Z,99700.04
2018-08-13T03:41:45.775Z,99696.98
2018-08-13T03:42:16.890Z,99693.47
2018-08-13T03:42:47.998Z,99696.85
2018-08-13T03:43:19.101Z,99692.74
2018-08-13T03:43:50.272Z,99695.38
2018-08-13T03:44:21.378Z,99690.10
2018-08-13T03:44:52.523Z,99692.66
2018-08-13T03:45:23.679Z,99691.33
2018-08-13T03:45:54.799Z,99690.16
2018-08-13T03:46:25.911Z,99688.94
2018-08-13T03:46:57.077Z,99702.44
2018-08-13T03:47:28.202Z,99692.66
2018-08-13T03:47:59.321Z,99689.83
2018-08-13T03:48:30.585Z,99690.45
2018-08-13T03:49:01.789Z,99696.71
2018-08-13T03:49:32.899Z,99695.44
2018-08-13T03:50:04.060Z,99694.73
2018-08-13T03:50:35.246Z,99692.81
2018-08-13T03:51:06.456Z,99690.08
2018-08-13T03:51:37.579Z,99691.88
2018-08-13T03:52:08.699Z,99695.55
2018-08-13T03:52:39.875Z,99692.78
2018-08-13T03:53:10.980Z,99693.17
2018-08-13T03:53:42.127Z,99694.25
2018-08-13T03:54:13.246Z,99693.03
2018-08-13T03:54:44.363Z,99693.59
2018-08-13T03:55:15.484Z,99694.47
2018-08-13T03:55:46.653Z,99689.76
2018-08-13T03:56:17.918Z,99696.27
2018-08-13T03:56:49.085Z,99696.27
2018-08-13T03:57:20.312Z,99696.13
2018-08-13T03:57:51.485Z,99690.38
2018-08-13T03:58:22.662Z,99694.65
2018-08-13T03:58:53.872Z,99694.84
2018-08-13T03:59:25.005Z,99697.86
2018-08-13T03:59:56.121Z,99697.11
2018-08-13T04:00:27.291Z,99695.69
2018-08-13T04:00:58.836Z,99695.51
2018-08-13T04:01:30.048Z,99690.88
2018-08-13T04:02:01.172Z,99690.84
2018-08-13T04:02:32.287Z,99690.84
2018-08-13T04:03:03.452Z,99689.72
2018-08-13T04:03:34.571Z,99694.13
2018-08-13T04:04:05.725Z,99694.11
2018-08-13T04:04:36.849Z,99695.36
2018-08-13T04:05:08.076Z,99696.78
2018-08-13T04:05:39.197Z,99694.30
2018-08-13T04:06:10.311Z,99692.56
2018-08-13T04:06:41.476Z,99693.97
2018-08-13T04:07:12.648Z,99701.41
2018-08-13T04:07:43.836Z,99693.36
2018-08-13T04:08:14.951Z,99692.84
2018-08-13T04:08:46.122Z,99693.38
2018-08-13T04:09:17.316Z,99687.16
2018-08-13T04:09:48.498Z,99695.48
2018-08-13T04:10:19.779Z,99700.55
2018-08-13T04:10:50.900Z,99690.84
2018-08-13T04:11:22.064Z,99692.16
2018-08-13T04:11:53.236Z,99689.86
2018-08-13T04:12:24.366Z,99695.19
2018-08-13T04:12:55.552Z,99695.69
2018-08-13T04:13:26.690Z,99688.58
2018-08-13T04:13:57.807Z,99692.94
2018-08-13T04:14:28.927Z,99695.41
2018-08-13T04:15:00.153Z,99696.98
2018-08-13T04:15:31.342Z,99693.05
2018-08-13T04:16:02.460Z,99695.89
2018-08-13T04:16:33.608Z,99698.01
2018-08-13T04:17:04.727Z,99698.48
2018-08-13T04:17:35.906Z,99699.14
2018-08-13T04:18:07.020Z,99689.17
2018-08-13T04:18:38.200Z,99697.42
2018-08-13T04:19:09.318Z,99697.08
2018-08-13T04:19:40.431Z,99698.33
2018-08-13T04:20:11.545Z,99697.08
2018-08-13T04:20:42.718Z,99697.35
2018-08-13T04:21:13.936Z,99698.98
2018-08-13T04:21:45.117Z,99696.09
2018-08-13T04:22:16.281Z,99700.09
2018-08-13T04:22:47.464Z,99698.06
2018-08-13T04:23:18.594Z,99692.59
2018-08-13T04:23:49.717Z,99701.78
2018-08-13T04:24:20.870Z,99696.65
2018-08-13T04:24:52.085Z,99704.48
2018-08-13T04:25:23.252Z,99701.25
2018-08-13T04:25:54.481Z,99701.27
2018-08-13T04:26:25.610Z,99704.32
2018-08-13T04:26:56.771Z,99700.14
2018-08-13T04:27:27.944Z,99694.59
2018-08-13T04:27:59.062Z,99697.34
2018-08-13T04:28:30.320Z,99694.23
2018-08-13T04:29:01.493Z,99688.05
2018-08-13T04:29:32.664Z,99692.97
2018-08-13T04:30:03.791Z,99695.52
2018-08-13T04:30:34.911Z,99692.30
2018-08-13T04:31:06.021Z,99688.12
2018-08-13T04:31:37.193Z,99691.76
2018-08-13T04:32:08.312Z,99686.81
2018-08-13T04:32:39.432Z,99688.14
2018-08-13T04:33:10.651Z,99697.94
2018-08-13T04:33:41.800Z,99689.70
2018-08-13T04:34:12.963Z,99687.87
2018-08-13T04:34:44.071Z,99689.34
2018-08-13T04:35:15.234Z,99691.38
2018-08-13T04:35:46.420Z,99691.52
2018-08-13T04:36:17.600Z,99692.95
2018-08-13T04:36:48.772Z,99689.78
2018-08-13T04:37:19.876Z,99690.98
2018-08-13T04:37:50.983Z,99689.02
2018-08-13T04:38:22.152Z,99693.16
2018-08-13T04:38:53.417Z,99695.51
2018-08-13T04:39:24.562Z,99691.95
2018-08-13T04:39:55.685Z,99699.53
2018-08-13T04:40:26.853Z,99690.53
2018-08-13T04:40:57.963Z,99697.09
2018-08-13T04:41:29.128Z,99689.95
2018-08-13T04:42:00.252Z,99692.64
2018-08-13T04:42:31.414Z,99693.58
2018-08-13T04:43:02.645Z,99695.34
2018-08-13T04:43:33.825Z,99690.16
2018-08-13T04:44:05.044Z,99694.98
2018-08-13T04:44:36.220Z,99691.72
2018-08-13T04:45:07.436Z,99692.39
2018-08-13T04:45:38.555Z,99698.77
2018-08-13T04:46:09.672Z,99696.90
2018-08-13T04:46:40.844Z,99690.55
2018-08-13T04:47:12.023Z,99684.95
2018-08-13T04:47:43.195Z,99685.00
2018-08-13T04:48:14.368Z,99685.89
2018-08-13T04:48:45.531Z,99684.92
2018-08-13T04:49:16.768Z,99686.80
2018-08-13T04:49:47.939Z,99685.57
2018-08-13T04:50:19.119Z,99686.63
2018-08-13T04:50:50.287Z,99688.22
2018-08-13T04:51:21.404Z,99685.97
2018-08-13T04:51:52.580Z,99687.92
2018-08-13T04:52:23.770Z,99691.79
2018-08-13T04:52:54.882Z,99690.11
2018-08-13T04:53:26.051Z,99686.19
2018-08-13T04:53:57.292Z,99683.39
2018-08-13T04:54:28.508Z,99687.65
2018-08-13T04:54:59.672Z,99685.64
2018-08-13T04:55:30.832Z,99686.47
2018-08-13T04:56:01.960Z,99680.17
2018-08-13T04:56:33.200Z,99688.16
2018-08-13T04:57:04.323Z,99685.47
2018-08-13T04:57:35.445Z,99687.92
2018-08-13T04:58:06.560Z,99683.86
2018-08-13T04:58:37.677Z,99679.73
2018-08-13T04:59:08.796Z,99676.50
2018-08-13T04:59:39.916Z,99678.05
2018-08-13T05:00:11.125Z,99678.84
2018-08-13T05:00:42.289Z,99674.66
2018-08-13T05:01:13.419Z,99680.37
2018-08-13T05:01:44.548Z,99682.27
2018-08-13T05:02:15.792Z,99668.88
2018-08-13T05:02:46.907Z,99683.36
2018-08-13T05:03:18.478Z,99681.30
2018-08-13T05:03:49.648Z,99676.73
2018-08-13T05:04:20.877Z,99681.05
2018-08-13T05:04:52.009Z,99681.78
2018-08-13T05:05:23.131Z,99681.75
2018-08-13T05:05:54.337Z,99685.40
2018-08-13T05:06:25.479Z,99686.33
2018-08-13T05:06:56.602Z,99685.88
2018-08-13T05:07:27.797Z,99690.16
2018-08-13T05:07:58.930Z,99686.65
2018-08-13T05:08:30.052Z,99686.27
2018-08-13T05:09:01.229Z,99683.48
2018-08-13T05:09:32.452Z,99687.19
2018-08-13T05:10:03.613Z,99682.48
2018-08-13T05:10:34.794Z,99681.30
2018-08-13T05:11:05.974Z,99683.38
2018-08-13T05:11:37.092Z,99682.23
2018-08-13T05:12:08.321Z,99681.40
2018-08-13T05:12:39.507Z,99677.83
2018-08-13T05:13:10.632Z,99676.55
2018-08-13T05:13:41.804Z,99680.58
2018-08-13T05:14:12.999Z,99679.41
2018-08-13T05:14:44.215Z,99683.53
2018-08-13T05:15:15.343Z,99682.41
2018-08-13T05:15:46.573Z,99683.94
2018-08-13T05:16:17.756Z,99685.20
2018-08-13T05:16:48.903Z,99676.42
2018-08-13T05:17:20.023Z,99679.97
2018-08-13T05:17:51.202Z,99679.24
2018-08-13T05:18:22.332Z,99682.36
2018-08-13T05:18:53.454Z,99674.29
2018-08-13T05:19:24.571Z,99675.70
2018-08-13T05:19:55.699Z,99679.02
2018-08-13T05:20:26.852Z,99673.30
2018-08-13T05:20:58.033Z,99679.35
2018-08-13T05:21:29.220Z,99683.76
2018-08-13T05:22:00.379Z,99677.69
2018-08-13T05:22:31.556Z,99685.91
2018-08-13T05:23:02.721Z,99677.09
2018-08-13T05:23:33.910Z,99680.28
2018-08-13T05:24:05.081Z,99680.02
2018-08-13T05:24:36.206Z,99685.39
2018-08-13T05:25:07.345Z,99682.05
2018-08-13T05:25:38.520Z,99684.02
2018-08-13T05:26:09.715Z,99685.77
2018-08-13T05:26:40.913Z,99686.55
2018-08-13T05:27:12.093Z,99689.22
2018-08-13T05:27:43.200Z,99682.56
2018-08-13T05:28:14.373Z,99684.44
2018-08-13T05:28:45.586Z,99686.78
2018-08-13T05:29:16.711Z,99681.48
2018-08-13T05:29:47.880Z,99684.66
2018-08-13T05:30:18.997Z,99681.63
2018-08-13T05:30:50.256Z,99689.73
2018-08-13T05:31:21.476Z,99682.68
2018-08-13T05:31:52.614Z,99685.66
2018-08-13T05:32:23.778Z,99686.05
2018-08-13T05:32:54.935Z,99693.30
2018-08-13T05:33:26.057Z,99685.91
2018-08-13T05:33:57.155Z,99690.56
2018-08-13T05:34:28.384Z,99693.44
2018-08-13T05:34:59.497Z,99684.76
2018-08-13T05:35:30.617Z,99686.23
2018-08-13T05:36:01.744Z,99686.84
2018-08-13T05:36:32.928Z,99692.44
2018-08-13T05:37:04.103Z,99686.98
2018-08-13T05:37:35.287Z,99684.99
2018-08-13T05:38:06.484Z,99689.42
2018-08-13T05:38:37.582Z,99690.13
2018-08-13T05:39:08.772Z,99672.17
2018-08-13T05:39:40.013Z,99691.88
2018-08-13T05:40:11.148Z,99684.34
2018-08-13T05:40:42.277Z,99684.80
2018-08-13T05:41:13.505Z,99682.52
2018-08-13T05:41:44.623Z,99684.73
2018-08-13T05:42:15.741Z,99687.78
2018-08-13T05:42:46.973Z,99683.38
2018-08-13T05:43:18.104Z,99687.38
2018-08-13T05:43:49.384Z,99683.23
2018-08-13T05:44:20.627Z,99678.97
2018-08-13T05:44:51.816Z,99687.66
2018-08-13T05:45:22.988Z,99683.17
2018-08-13T05:45:54.145Z,99682.97
2018-08-13T05:46:25.388Z,99682.33
2018-08-13T05:46:56.508Z,99689.31
2018-08-13T05:47:27.676Z,99680.75
2018-08-13T05:47:58.911Z,99686.52
2018-08-13T05:48:30.088Z,99685.28
2018-08-13T05:49:01.280Z,99682.00
2018-08-13T05:49:32.500Z,99686.86
2018-08-13T05:50:03.745Z,99678.84
2018-08-13T05:50:34.940Z,99678.52
2018-08-13T05:51:06.060Z,99679.49
2018-08-13T05:51:37.235Z,99676.50
2018-08-13T05:52:08.411Z,99684.27
2018-08-13T05:52:39.528Z,99675.19
2018-08-13T05:53:10.748Z,99675.44
2018-08-13T05:53:41.864Z,99674.45
2018-08-13T05:54:13.044Z,99673.95
2018-08-13T05:54:44.229Z,99672.97
2018-08-13T05:55:15.347Z,99677.49
2018-08-13T05:55:46.466Z,99678.53
2018-08-13T05:56:17.633Z,99679.98
2018-08-13T05:56:48.783Z,99673.27
2018-08-13T05:57:19.900Z,99674.88
2018-08-13T05:57:51.012Z,99677.09
2018-08-13T05:58:22.128Z,99678.64
2018-08-13T05:58:53.348Z,99675.75
2018-08-13T05:59:24.516Z,99679.59
2018-08-13T05:59:55.688Z,99675.52
2018-08-13T06:00:26.928Z,99677.94
2018-08-13T06:00:58.060Z,99670.34
2018-08-13T06:01:29.207Z,99674.97
2018-08-13T06:02:00.377Z,99679.97
2018-08-13T06:02:31.600Z,99675.16
2018-08-13T06:03:02.733Z,99672.84
2018-08-13T06:03:33.867Z,99676.14
2018-08-13T06:04:04.991Z,99674.52
2018-08-13T06:04:36.360Z,99671.02
2018-08-13T06:05:07.512Z,99674.02
2018-08-13T06:05:38.684Z,99673.33
2018-08-13T06:06:09.800Z,99676.30